Time;durP1;ratioP1;P1;durP2;ratioP2;P2;SDS_P1;SDS_P2;PMS_P1;PMS_P2;Temp;Humidity;BMP_temperature;BMP_pressure;BME280_temperature;BME280_humidity;BME280_pressure;Samples;Min_cycle;Max_cycle;Signal;HPM_P1;HPM_P2
2023/01/10 00:00:23;;;;;;;1.13;0.60;;;3.30;99.90;;;;;;5013995;28;20417;-72
2023/01/10 00:02:50;;;;;;;1.30;0.70;;;3.30;99.90;;;;;;5011986;28;20434;-72
2023/01/10 00:05:16;;;;;;;1.93;0.50;;;3.30;99.90;;;;;;5005027;28;20464;-72
2023/01/10 00:07:42;;;;;;;1.30;0.50;;;3.30;99.90;;;;;;5014202;28;20410;-72
2023/01/10 00:10:08;;;;;;;3.30;0.90;;;3.30;99.90;;;;;;5024841;28;20419;-73
2023/01/10 00:15:18;;;;;;;1.10;0.60;;;3.30;99.90;;;;;;5025573;28;20743;-72
2023/01/10 00:17:43;;;;;;;1.10;0.40;;;3.30;99.90;;;;;;5033593;28;20413;-72
2023/01/10 00:20:10;;;;;;;1.10;0.40;;;3.30;99.90;;;;;;5020911;28;20228;-72
2023/01/10 00:22:35;;;;;;;2.03;1.00;;;3.20;99.90;;;;;;5033029;28;20191;-72
2023/01/10 00:25:01;;;;;;;1.30;0.60;;;3.20;99.90;;;;;;5033531;28;20417;-72
2023/01/10 00:27:26;;;;;;;1.43;0.57;;;3.20;99.90;;;;;;5033115;28;20674;-72
2023/01/10 00:29:52;;;;;;;1.10;0.50;;;3.20;99.90;;;;;;5033213;28;20221;-72
2023/01/10 00:32:21;;;;;;;1.87;0.90;;;3.20;99.90;;;;;;5019762;28;20186;-72
2023/01/10 00:34:47;;;;;;;1.10;0.53;;;3.20;99.90;;;;;;5021058;28;20215;-73
2023/01/10 00:37:13;;;;;;;1.13;0.47;;;3.20;99.90;;;;;;5033171;28;20425;-72
2023/01/10 00:39:38;;;;;;;3.67;0.90;;;3.20;99.90;;;;;;5033757;28;20631;-72
2023/01/10 00:44:48;;;;;;;1.20;0.50;;;3.20;99.90;;;;;;5025511;28;20206;-73
2023/01/10 00:47:14;;;;;;;1.30;0.60;;;3.20;99.90;;;;;;5033262;28;20425;-72
2023/01/10 00:49:40;;;;;;;1.10;0.50;;;3.20;99.90;;;;;;5032325;28;20663;-72
2023/01/10 00:52:06;;;;;;;1.10;0.53;;;3.10;99.90;;;;;;5020710;28;20193;-72
2023/01/10 00:54:32;;;;;;;1.37;0.70;;;3.10;99.90;;;;;;5018523;28;20207;-73
2023/01/10 00:56:57;;;;;;;1.67;0.80;;;3.10;99.90;;;;;;5004940;28;20441;-72
2023/01/10 00:59:23;;;;;;;6.20;0.67;;;3.10;99.90;;;;;;5014586;28;20266;-73
2023/01/10 01:01:50;;;;;;;2.33;0.63;;;3.10;99.90;;;;;;5012291;28;20672;-73
2023/01/10 01:04:16;;;;;;;1.10;0.50;;;3.10;99.90;;;;;;5025672;28;20425;-73
2023/01/10 01:06:46;;;;;;;1.10;0.50;;;3.10;99.90;;;;;;5022210;28;21020;-73
2023/01/10 01:09:12;;;;;;;1.13;0.60;;;3.10;99.90;;;;;;5017656;28;20441;-73
2023/01/10 01:11:38;;;;;;;1.70;0.60;;;3.10;99.90;;;;;;5032520;28;20906;-73
2023/01/10 01:14:04;;;;;;;1.10;0.40;;;3.00;99.90;;;;;;5018691;28;20481;-73
2023/01/10 01:16:30;;;;;;;1.30;0.67;;;3.00;99.90;;;;;;5015273;28;20186;-73
2023/01/10 01:18:56;;;;;;;1.10;0.60;;;3.00;99.90;;;;;;5029110;28;21254;-72
2023/01/10 01:21:26;;;;;;;1.10;0.50;;;2.90;99.90;;;;;;5032930;28;20212;-73
2023/01/10 01:23:55;;;;;;;1.43;0.73;;;3.00;99.90;;;;;;5032664;28;20825;-72
2023/01/10 01:26:25;;;;;;;2.13;0.70;;;2.90;99.90;;;;;;5031969;28;20511;-71
2023/01/10 01:28:51;;;;;;;1.60;0.70;;;2.90;99.90;;;;;;5019018;28;20804;-72
2023/01/10 01:31:17;;;;;;;2.10;0.90;;;2.90;99.90;;;;;;5032184;28;20425;-72
2023/01/10 01:33:42;;;;;;;1.17;0.63;;;2.90;99.90;;;;;;5028144;28;20470;-72
2023/01/10 01:36:12;;;;;;;1.10;0.57;;;2.90;99.90;;;;;;5022852;28;20187;-73
2023/01/10 01:38:38;;;;;;;1.43;0.70;;;2.90;99.90;;;;;;5014872;28;20933;-73
2023/01/10 01:41:55;;;;;;;2.30;0.80;;;2.90;99.90;;;;;;5023611;28;20460;-73
2023/01/10 01:44:14;;;;;;;6.90;0.50;;;2.90;99.90;;;;;;5031002;28;20429;-72
2023/01/10 01:46:41;;;;;;;1.10;0.60;;;2.80;99.90;;;;;;5021430;28;20432;-72
2023/01/10 01:49:19;;;;;;;1.10;0.50;;;2.80;99.90;;;;;;5007917;28;20771;-72
2023/01/10 01:51:47;;;;;;;1.10;0.50;;;2.80;99.90;;;;;;5012785;28;20433;-72
2023/01/10 01:54:15;;;;;;;1.13;0.50;;;2.80;99.90;;;;;;5014325;28;20462;-72
2023/01/10 01:56:50;;;;;;;6.73;0.70;;;2.70;99.90;;;;;;5011287;28;20429;-73
2023/01/10 01:59:27;;;;;;;2.07;0.87;;;2.70;99.90;;;;;;5005286;28;20513;-72
2023/01/10 02:02:00;;;;;;;1.67;0.70;;;2.70;99.90;;;;;;5012439;28;20908;-73
2023/01/10 02:04:50;;;;;;;3.40;0.70;;;2.70;99.90;;;;;;5008450;28;20433;-73
2023/01/10 02:07:16;;;;;;;1.57;0.70;;;2.80;99.90;;;;;;5015064;28;20492;-72
2023/01/10 02:09:50;;;;;;;1.27;0.53;;;2.80;99.90;;;;;;5005432;28;20428;-73
2023/01/10 02:12:16;;;;;;;1.77;0.70;;;2.80;99.90;;;;;;5031197;28;20790;-72
2023/01/10 02:14:44;;;;;;;1.60;0.70;;;2.80;99.90;;;;;;5025803;28;20556;-72
2023/01/10 02:17:10;;;;;;;1.43;0.73;;;2.80;99.90;;;;;;5031454;28;20545;-72
2023/01/10 02:19:42;;;;;;;1.50;0.70;;;2.80;99.90;;;;;;5031196;28;20429;-73
2023/01/10 02:22:28;;;;;;;7.30;0.80;;;2.90;99.90;;;;;;5015387;28;20521;-72
2023/01/10 02:25:12;;;;;;;1.37;0.70;;;2.90;99.90;;;;;;5023056;28;20417;-73
2023/01/10 02:28:03;;;;;;;1.40;0.57;;;2.90;99.90;;;;;;5006628;28;20425;-73
2023/01/10 02:30:47;;;;;;;1.20;0.53;;;3.00;99.90;;;;;;5031011;28;20432;-73
2023/01/10 02:33:29;;;;;;;1.03;0.50;;;3.00;99.90;;;;;;5004349;28;20570;-73
2023/01/10 02:35:55;;;;;;;1.67;0.70;;;3.00;99.90;;;;;;5020506;28;20433;-72
2023/01/10 02:38:39;;;;;;;1.10;0.50;;;3.00;99.90;;;;;;5031040;28;20417;-72
2023/01/10 02:41:31;;;;;;;1.10;0.50;;;3.00;99.90;;;;;;5031405;28;20413;-73
2023/01/10 02:44:10;;;;;;;1.57;0.67;;;3.10;99.90;;;;;;5031189;28;20514;-73
2023/01/10 02:46:37;;;;;;;1.50;0.50;;;3.10;99.90;;;;;;5026015;28;20485;-72
2023/01/10 02:49:03;;;;;;;1.30;0.63;;;3.10;99.90;;;;;;5021453;28;20897;-73
2023/01/10 02:51:32;;;;;;;1.40;0.50;;;3.10;99.90;;;;;;5030869;28;20425;-73
2023/01/10 02:54:21;;;;;;;1.40;0.50;;;3.10;99.90;;;;;;5031229;28;20210;-72
2023/01/10 02:57:13;;;;;;;1.57;0.50;;;3.10;99.90;;;;;;5023349;28;20436;-73
2023/01/10 02:59:57;;;;;;;1.40;0.60;;;3.00;99.90;;;;;;5016002;28;20817;-73
2023/01/10 03:03:00;;;;;;;1.00;0.50;;;3.00;99.90;;;;;;5010918;28;20441;-73
2023/01/10 03:05:38;;;;;;;1.27;0.57;;;3.00;99.90;;;;;;4987457;28;20437;-72
2023/01/10 03:08:34;;;;;;;1.10;0.50;;;3.00;99.90;;;;;;5020748;28;20417;-73
2023/01/10 03:11:03;;;;;;;1.87;0.53;;;3.00;99.90;;;;;;5026641;28;20430;-72
2023/01/10 03:13:52;;;;;;;3.00;0.70;;;3.10;99.90;;;;;;5022017;28;20464;-73
2023/01/10 03:16:22;;;;;;;1.00;0.50;;;3.00;99.90;;;;;;5022522;28;20500;-73
2023/01/10 03:18:55;;;;;;;1.17;0.60;;;3.00;99.90;;;;;;5030989;28;20920;-73
2023/01/10 03:21:23;;;;;;;1.30;0.47;;;3.00;99.90;;;;;;5028922;28;20413;-72
2023/01/10 03:23:51;;;;;;;1.83;0.70;;;3.00;99.90;;;;;;5030671;28;20421;-74
2023/01/10 03:26:24;;;;;;;1.90;0.67;;;3.00;99.90;;;;;;5033831;28;20518;-71
2023/01/10 03:28:55;;;;;;;1.30;0.70;;;3.10;99.90;;;;;;5017324;28;20484;-71
2023/01/10 03:31:36;;;;;;;1.10;0.50;;;3.10;99.90;;;;;;5014625;28;20418;-71
2023/01/10 03:34:02;;;;;;;3.40;0.60;;;3.00;99.90;;;;;;5020287;28;20476;-72
2023/01/10 03:36:31;;;;;;;1.10;0.50;;;3.00;99.90;;;;;;5034531;28;20433;-72
2023/01/10 03:39:16;;;;;;;1.20;0.60;;;3.00;99.90;;;;;;5034527;28;20467;-72
2023/01/10 03:41:57;;;;;;;1.10;0.50;;;3.10;99.90;;;;;;5020992;28;20466;-71
2023/01/10 03:44:47;;;;;;;1.30;0.60;;;3.10;99.90;;;;;;5033800;28;20905;-72
2023/01/10 03:47:28;;;;;;;1.30;0.50;;;3.10;99.90;;;;;;5014543;28;20414;-72
2023/01/10 03:49:59;;;;;;;3.33;0.57;;;3.10;99.90;;;;;;5032104;28;20424;-72
2023/01/10 03:52:26;;;;;;;1.43;0.50;;;3.00;99.90;;;;;;5034047;28;20417;-72
2023/01/10 03:54:52;;;;;;;1.43;0.50;;;3.10;99.90;;;;;;5020886;28;20499;-72
2023/01/10 03:57:21;;;;;;;1.60;0.70;;;3.10;99.90;;;;;;5034307;28;20929;-72
2023/01/10 03:59:51;;;;;;;1.00;0.40;;;3.10;99.90;;;;;;5017743;28;20422;-72
2023/01/10 04:02:16;;;;;;;1.77;0.70;;;3.10;99.90;;;;;;5013749;28;20453;-72
2023/01/10 04:04:42;;;;;;;1.57;0.93;;;3.10;99.90;;;;;;5014206;28;20418;-71
2023/01/10 04:07:08;;;;;;;1.20;0.60;;;3.00;99.90;;;;;;5017169;28;20281;-71
2023/01/10 04:09:33;;;;;;;1.40;0.73;;;3.00;99.90;;;;;;5019711;28;20178;-72
2023/01/10 04:11:59;;;;;;;1.10;0.50;;;3.00;99.90;;;;;;5021395;28;20215;-71
2023/01/10 04:14:24;;;;;;;2.07;0.67;;;3.00;99.90;;;;;;5026765;28;20203;-71
2023/01/10 04:16:50;;;;;;;1.67;0.60;;;2.90;99.90;;;;;;5026017;28;20216;-71
2023/01/10 04:19:15;;;;;;;1.10;0.40;;;2.90;99.90;;;;;;5020475;28;20631;-71
2023/01/10 04:21:41;;;;;;;1.03;0.40;;;2.80;99.90;;;;;;5031206;28;20224;-71
2023/01/10 04:24:07;;;;;;;1.00;0.40;;;2.80;99.90;;;;;;5033573;28;20193;-71
2023/01/10 04:26:32;;;;;;;2.00;0.63;;;2.80;99.90;;;;;;5022111;28;20198;-71
2023/01/10 04:28:58;;;;;;;1.20;0.50;;;2.70;99.90;;;;;;5018861;28;20260;-71
2023/01/10 04:31:25;;;;;;;1.53;0.70;;;2.60;99.90;;;;;;5004481;28;20198;-71
2023/01/10 04:33:51;;;;;;;1.43;0.60;;;2.60;99.90;;;;;;5007475;28;20202;-71
2023/01/10 04:36:17;;;;;;;1.47;0.80;;;2.60;99.90;;;;;;5032693;28;20440;-72
2023/01/10 04:38:42;;;;;;;2.40;0.90;;;2.60;99.90;;;;;;5033376;28;20178;-71
2023/01/10 04:41:08;;;;;;;1.20;0.60;;;2.50;99.90;;;;;;5033393;28;20179;-73
2023/01/10 04:43:34;;;;;;;2.03;0.70;;;2.50;99.90;;;;;;5032759;28;20787;-72
2023/01/10 04:45:59;;;;;;;1.33;0.60;;;2.50;99.90;;;;;;5031199;28;20456;-73
2023/01/10 04:48:25;;;;;;;2.43;1.03;;;2.50;99.90;;;;;;5028219;28;20195;-73
2023/01/10 04:50:52;;;;;;;14.10;1.47;;;2.60;99.90;;;;;;5013619;28;20659;-71
2023/01/10 04:53:18;;;;;;;1.57;0.90;;;2.60;99.90;;;;;;5031110;28;20499;-71
2023/01/10 04:55:44;;;;;;;2.93;0.73;;;2.60;99.90;;;;;;5033054;28;20424;-71
2023/01/10 04:58:10;;;;;;;1.60;0.70;;;2.70;99.90;;;;;;5030263;28;20449;-71
2023/01/10 05:00:36;;;;;;;7.33;1.17;;;2.70;99.90;;;;;;5012910;28;20726;-71
2023/01/10 05:03:02;;;;;;;2.10;0.90;;;2.70;99.90;;;;;;5019239;28;20186;-71
2023/01/10 05:05:28;;;;;;;5.70;1.27;;;2.80;99.90;;;;;;5021084;28;20910;-71
2023/01/10 05:07:53;;;;;;;5.70;1.80;;;2.70;99.90;;;;;;5021611;28;20706;-73
2023/01/10 05:10:19;;;;;;;1.40;0.73;;;2.80;99.90;;;;;;5032634;28;20420;-73
2023/01/10 05:12:45;;;;;;;2.80;0.70;;;2.80;99.90;;;;;;5032540;28;20181;-73
2023/01/10 05:15:12;;;;;;;4.40;1.07;;;2.90;99.90;;;;;;5025655;28;20297;-73
2023/01/10 05:17:38;;;;;;;1.37;0.60;;;2.90;99.90;;;;;;5031285;28;20418;-73
2023/01/10 05:20:04;;;;;;;2.70;0.97;;;2.80;99.90;;;;;;5031845;28;20418;-73
2023/01/10 05:22:30;;;;;;;5.40;1.10;;;2.80;99.90;;;;;;5013137;28;20578;-73
2023/01/10 05:24:56;;;;;;;2.50;1.20;;;2.80;99.90;;;;;;5032086;28;20424;-70
2023/01/10 05:27:21;;;;;;;4.83;1.63;;;2.90;99.90;;;;;;5032061;28;20582;-71
2023/01/10 05:29:47;;;;;;;3.20;1.27;;;2.90;99.90;;;;;;5020424;28;20206;-70
2023/01/10 05:32:13;;;;;;;4.40;1.90;;;2.90;99.90;;;;;;5026964;28;20187;-70
2023/01/10 05:34:38;;;;;;;1.60;0.90;;;2.90;99.90;;;;;;5005954;28;20206;-70
2023/01/10 05:37:04;;;;;;;1.73;0.93;;;2.90;99.90;;;;;;5032523;28;20233;-70
2023/01/10 05:39:30;;;;;;;6.20;1.20;;;2.90;99.90;;;;;;5031733;28;20600;-70
2023/01/10 05:41:55;;;;;;;5.43;1.47;;;2.90;99.90;;;;;;5031852;28;20187;-70
2023/01/10 05:44:21;;;;;;;3.30;1.20;;;2.90;99.90;;;;;;5020969;28;20750;-70
2023/01/10 05:46:46;;;;;;;8.93;1.70;;;2.90;99.90;;;;;;5032024;28;20556;-70
2023/01/10 05:49:12;;;;;;;2.30;1.40;;;2.90;99.90;;;;;;5032275;28;20511;-70
2023/01/10 05:51:38;;;;;;;3.10;1.50;;;2.90;99.90;;;;;;5027423;28;20190;-70
2023/01/10 05:54:03;;;;;;;6.83;1.33;;;2.90;99.90;;;;;;5023030;28;20627;-70
2023/01/10 05:56:29;;;;;;;5.00;1.87;;;2.90;99.90;;;;;;5027668;28;20186;-72
2023/01/10 05:58:55;;;;;;;3.30;0.90;;;2.90;99.90;;;;;;5012426;28;20179;-73
2023/01/10 06:01:21;;;;;;;5.63;1.77;;;2.90;99.90;;;;;;5011877;28;20270;-73
2023/01/10 06:03:47;;;;;;;3.67;1.40;;;2.90;99.90;;;;;;5023210;28;20449;-72
2023/01/10 06:06:13;;;;;;;2.07;1.23;;;2.90;99.90;;;;;;5018678;28;20269;-72
2023/01/10 06:08:39;;;;;;;6.70;1.97;;;3.00;99.90;;;;;;5029779;28;20528;-72
2023/01/10 06:11:05;;;;;;;4.03;1.73;;;2.90;99.90;;;;;;5031531;28;20265;-72
2023/01/10 06:13:32;;;;;;;2.17;0.97;;;2.80;99.90;;;;;;5012951;28;20467;-73
2023/01/10 06:15:58;;;;;;;9.80;1.87;;;2.70;99.90;;;;;;5022969;28;20464;-73
2023/01/10 06:18:23;;;;;;;1.53;0.73;;;2.70;99.90;;;;;;5032114;28;20460;-73
2023/01/10 06:20:49;;;;;;;1.77;1.10;;;2.60;99.90;;;;;;5031714;28;20432;-73
2023/01/10 06:23:15;;;;;;;7.17;2.00;;;2.60;99.90;;;;;;5009584;28;20191;-73
2023/01/10 06:25:41;;;;;;;8.40;2.23;;;2.60;99.90;;;;;;4997971;28;20686;-73
2023/01/10 06:28:08;;;;;;;2.77;1.03;;;2.60;99.90;;;;;;5031762;28;20197;-73
2023/01/10 06:30:35;;;;;;;12.10;1.30;;;2.70;99.90;;;;;;5030811;28;20866;-73
2023/01/10 06:33:02;;;;;;;2.00;0.90;;;2.70;99.90;;;;;;5012111;28;20468;-70
2023/01/10 06:35:28;;;;;;;4.50;1.90;;;2.70;99.90;;;;;;5009013;28;20241;-70
2023/01/10 06:37:54;;;;;;;2.37;1.40;;;2.80;99.90;;;;;;5010778;28;20846;-70
2023/01/10 06:40:19;;;;;;;2.70;1.23;;;2.80;99.90;;;;;;5013456;28;20509;-70
2023/01/10 06:42:45;;;;;;;10.13;2.37;;;2.70;99.90;;;;;;5010853;28;20274;-70
2023/01/10 06:45:11;;;;;;;8.13;1.83;;;2.80;99.90;;;;;;5023695;28;20186;-70
2023/01/10 06:47:37;;;;;;;7.80;1.67;;;2.80;99.90;;;;;;5029514;28;20563;-70
2023/01/10 06:50:03;;;;;;;1.70;0.90;;;2.80;99.90;;;;;;5003703;28;20270;-70
2023/01/10 06:52:29;;;;;;;7.83;1.63;;;2.80;99.90;;;;;;5029999;28;20429;-70
2023/01/10 06:54:55;;;;;;;5.10;1.50;;;2.80;99.90;;;;;;5030188;28;20867;-73
2023/01/10 06:57:21;;;;;;;2.67;1.63;;;2.80;99.90;;;;;;5030676;28;20244;-72
2023/01/10 06:59:46;;;;;;;4.33;1.73;;;2.90;99.90;;;;;;5014658;28;20190;-73
2023/01/10 07:02:12;;;;;;;2.07;1.67;;;2.90;99.90;;;;;;5015476;28;20242;-73
2023/01/10 07:04:38;;;;;;;8.10;1.83;;;2.80;99.90;;;;;;5014444;28;20272;-73
2023/01/10 07:07:04;;;;;;;3.60;1.50;;;2.80;99.90;;;;;;5016572;28;20426;-72
2023/01/10 07:09:29;;;;;;;3.43;1.83;;;2.80;99.90;;;;;;5033618;28;20575;-70
2023/01/10 07:11:55;;;;;;;2.77;1.70;;;2.80;99.90;;;;;;5035039;28;20409;-70
2023/01/10 07:14:21;;;;;;;9.23;2.00;;;2.80;99.90;;;;;;5034440;28;20309;-70
2023/01/10 07:16:47;;;;;;;4.80;2.20;;;2.80;99.90;;;;;;5006308;28;20182;-71
2023/01/10 07:19:13;;;;;;;5.83;2.00;;;2.80;99.90;;;;;;5033061;28;20186;-71
2023/01/10 07:21:39;;;;;;;14.57;1.63;;;2.80;99.90;;;;;;5009016;28;20206;-71
2023/01/10 07:24:05;;;;;;;3.33;1.63;;;2.80;99.90;;;;;;5031955;28;20842;-71
2023/01/10 07:26:30;;;;;;;5.07;1.43;;;2.80;99.90;;;;;;5036195;28;20824;-70
2023/01/10 07:28:56;;;;;;;6.93;2.57;;;2.90;99.90;;;;;;5025613;28;20421;-70
2023/01/10 07:31:23;;;;;;;6.57;1.40;;;2.90;99.90;;;;;;5034921;28;20193;-70
2023/01/10 07:33:50;;;;;;;1.60;0.93;;;2.80;99.90;;;;;;5023692;28;20235;-70
2023/01/10 07:36:16;;;;;;;4.30;1.80;;;2.80;99.90;;;;;;5038453;28;20428;-70
2023/01/10 07:38:42;;;;;;;7.70;2.60;;;2.80;99.90;;;;;;5038265;28;20425;-70
2023/01/10 07:41:07;;;;;;;11.00;2.80;;;2.90;99.90;;;;;;5037221;28;20218;-69
2023/01/10 07:43:33;;;;;;;4.13;1.40;;;2.80;99.90;;;;;;5037524;28;20190;-71
2023/01/10 07:46:00;;;;;;;10.10;2.03;;;2.80;99.90;;;;;;5035708;28;20197;-71
2023/01/10 07:48:26;;;;;;;6.97;3.00;;;2.90;99.90;;;;;;5038005;28;20428;-71
2023/01/10 07:50:56;;;;;;;3.83;1.23;;;2.90;99.90;;;;;;5036733;28;20428;-70
2023/01/10 07:53:22;;;;;;;2.23;0.87;;;2.90;99.90;;;;;;5002845;28;20247;-70
2023/01/10 07:55:48;;;;;;;5.80;1.30;;;2.90;99.90;;;;;;5013702;28;20492;-70
2023/01/10 07:58:13;;;;;;;5.53;1.63;;;2.90;99.90;;;;;;5013099;28;20196;-69
2023/01/10 08:00:39;;;;;;;3.00;1.20;;;2.90;99.90;;;;;;5016400;28;20179;-70
2023/01/10 08:03:05;;;;;;;7.33;1.10;;;3.00;99.90;;;;;;5022494;28;20197;-68
2023/01/10 08:05:31;;;;;;;5.23;1.87;;;3.00;99.90;;;;;;5032218;28;20786;-69
2023/01/10 08:08:02;;;;;;;4.43;1.80;;;3.00;99.90;;;;;;5034298;28;20627;-69
2023/01/10 08:10:27;;;;;;;9.03;1.70;;;3.00;99.90;;;;;;5017552;28;20430;-69
2023/01/10 08:12:53;;;;;;;4.10;1.60;;;3.00;99.90;;;;;;5032852;28;21101;-69
2023/01/10 08:15:19;;;;;;;5.77;1.80;;;3.00;99.90;;;;;;5025021;28;20545;-71
2023/01/10 08:17:45;;;;;;;4.70;1.63;;;3.00;99.90;;;;;;5020123;28;20569;-72
2023/01/10 08:20:11;;;;;;;7.30;1.50;;;3.00;99.90;;;;;;5000029;28;20560;-71
2023/01/10 08:22:36;;;;;;;5.83;1.57;;;3.00;99.90;;;;;;5012543;28;20603;-72
2023/01/10 08:25:02;;;;;;;4.90;1.73;;;3.10;99.90;;;;;;5025805;28;20875;-71
2023/01/10 08:27:28;;;;;;;3.80;1.60;;;3.10;99.90;;;;;;5017778;28;20191;-72
2023/01/10 08:29:53;;;;;;;8.93;1.47;;;3.20;99.90;;;;;;5024642;28;20189;-71
2023/01/10 08:32:19;;;;;;;4.13;1.80;;;3.20;99.90;;;;;;5027044;28;20597;-71
2023/01/10 08:34:44;;;;;;;8.50;1.63;;;3.20;99.90;;;;;;5024169;28;20252;-71
2023/01/10 08:37:12;;;;;;;5.60;2.07;;;3.30;99.90;;;;;;5030753;28;20257;-72
2023/01/10 08:39:38;;;;;;;3.80;1.17;;;3.30;99.90;;;;;;5030704;28;20191;-71
2023/01/10 08:42:04;;;;;;;2.40;1.17;;;3.40;99.90;;;;;;5017538;28;20425;-71
2023/01/10 08:44:30;;;;;;;6.63;1.70;;;3.30;99.90;;;;;;5028747;28;20182;-71
2023/01/10 08:46:55;;;;;;;4.20;2.13;;;3.30;99.90;;;;;;5030405;28;20459;-71
2023/01/10 08:49:21;;;;;;;3.50;1.33;;;3.30;99.90;;;;;;5017766;28;20198;-71
2023/01/10 08:51:47;;;;;;;4.30;1.67;;;3.30;99.90;;;;;;5024269;28;20194;-71
2023/01/10 08:54:13;;;;;;;1.87;1.00;;;3.30;99.90;;;;;;5023398;28;20452;-71
2023/01/10 08:56:39;;;;;;;3.97;1.70;;;3.30;99.90;;;;;;5031064;28;20175;-71
2023/01/10 08:59:05;;;;;;;5.60;1.80;;;3.30;99.90;;;;;;5016994;28;20175;-70
2023/01/10 09:01:31;;;;;;;5.63;2.13;;;3.40;99.90;;;;;;5012055;28;20422;-71
2023/01/10 09:03:56;;;;;;;9.20;2.17;;;3.30;99.90;;;;;;5023207;28;20421;-70
2023/01/10 09:06:23;;;;;;;10.10;2.00;;;3.40;99.90;;;;;;5014225;28;20175;-70
2023/01/10 09:08:49;;;;;;;4.77;2.03;;;3.40;99.90;;;;;;5023835;28;20178;-70
2023/01/10 09:11:14;;;;;;;1.57;0.87;;;3.30;99.90;;;;;;5030446;28;20436;-70
2023/01/10 09:13:41;;;;;;;10.33;1.23;;;3.40;99.90;;;;;;5030370;28;20527;-70
2023/01/10 09:16:07;;;;;;;2.90;1.70;;;3.50;99.90;;;;;;5020867;28;20603;-70
2023/01/10 09:18:33;;;;;;;1.90;1.10;;;3.40;99.90;;;;;;5030327;28;20480;-70
2023/01/10 09:20:59;;;;;;;4.20;1.30;;;3.30;99.90;;;;;;5021188;28;20457;-70
2023/01/10 09:23:25;;;;;;;4.77;1.93;;;3.30;99.90;;;;;;5022870;28;20297;-70
2023/01/10 09:25:53;;;;;;;4.77;2.33;;;3.30;99.90;;;;;;5030233;28;20421;-70
2023/01/10 09:28:20;;;;;;;3.73;1.60;;;3.30;99.90;;;;;;5030204;28;20475;-70
2023/01/10 09:30:46;;;;;;;4.60;1.73;;;3.30;99.90;;;;;;5029582;28;20457;-70
2023/01/10 09:33:12;;;;;;;3.60;1.23;;;3.40;99.90;;;;;;5018046;28;20426;-69
2023/01/10 09:35:40;;;;;;;4.53;1.30;;;3.40;99.90;;;;;;5028717;28;20421;-71
2023/01/10 09:38:09;;;;;;;3.20;1.33;;;3.50;99.90;;;;;;5030309;28;20413;-70
2023/01/10 09:40:52;;;;;;;5.80;1.10;;;3.60;99.90;;;;;;5020159;28;20857;-70
2023/01/10 09:43:59;;;;;;;3.80;1.70;;;3.60;99.90;;;;;;5016137;28;20423;-70
2023/01/10 09:46:42;;;;;;;9.03;1.00;;;3.70;99.90;;;;;;5006712;28;20449;-69
2023/01/10 09:49:21;;;;;;;2.57;1.50;;;3.60;99.90;;;;;;5028570;28;20428;-71
2023/01/10 09:51:50;;;;;;;7.57;1.57;;;3.80;99.90;;;;;;5028954;28;20417;-71
2023/01/10 09:54:30;;;;;;;2.40;1.00;;;3.80;99.90;;;;;;5029208;28;20861;-70
2023/01/10 09:56:59;;;;;;;4.47;1.40;;;3.90;99.90;;;;;;5029839;28;20425;-71
2023/01/10 09:59:29;;;;;;;6.23;1.30;;;4.00;99.90;;;;;;5013327;28;20460;-71
2023/01/10 10:02:05;;;;;;;11.90;2.93;;;4.00;99.90;;;;;;5009292;28;20759;-71
2023/01/10 10:04:38;;;;;;;3.00;1.20;;;4.00;99.90;;;;;;5024998;28;20494;-71
2023/01/10 10:07:11;;;;;;;3.03;1.10;;;4.10;99.90;;;;;;5029684;28;20786;-71
2023/01/10 10:09:37;;;;;;;3.77;1.30;;;4.10;99.90;;;;;;5016084;28;20460;-71
2023/01/10 10:12:29;;;;;;;1.87;1.00;;;4.10;99.90;;;;;;5029125;28;20452;-71
2023/01/10 10:15:29;;;;;;;5.13;1.40;;;4.10;99.90;;;;;;4994674;28;20672;-71
2023/01/10 10:18:03;;;;;;;2.30;1.13;;;4.20;99.90;;;;;;5016579;28;20458;-71
2023/01/10 10:20:58;;;;;;;2.50;1.20;;;4.20;99.90;;;;;;5013682;28;20417;-71
2023/01/10 10:23:45;;;;;;;2.90;1.57;;;4.20;99.90;;;;;;5020570;23;20513;-71
2023/01/10 10:26:38;;;;;;;4.63;1.73;;;4.20;99.90;;;;;;5009014;28;20437;-71
2023/01/10 10:29:30;;;;;;;3.80;0.93;;;4.30;99.90;;;;;;5008528;28;20670;-71
2023/01/10 10:31:59;;;;;;;5.10;1.13;;;4.40;99.90;;;;;;5006790;28;20429;-71
2023/01/10 10:34:42;;;;;;;5.93;1.70;;;4.40;99.90;;;;;;4998615;28;20946;-71
2023/01/10 10:37:16;;;;;;;3.40;1.53;;;4.40;99.90;;;;;;5008569;28;20426;-71
2023/01/10 10:39:59;;;;;;;3.33;1.53;;;4.50;99.90;;;;;;4997145;28;20465;-72
2023/01/10 10:42:37;;;;;;;4.40;1.23;;;4.50;99.90;;;;;;5005677;28;20871;-71
2023/01/10 10:45:14;;;;;;;4.60;1.30;;;4.50;99.90;;;;;;4988305;28;20418;-71
2023/01/10 10:47:42;;;;;;;1.60;0.93;;;4.60;99.90;;;;;;4990853;28;20926;-72
2023/01/10 10:50:14;;;;;;;3.20;0.90;;;4.60;99.90;;;;;;4991086;28;20767;-71
2023/01/10 10:52:41;;;;;;;6.67;0.97;;;4.50;99.90;;;;;;4991049;28;20455;-72
2023/01/10 10:55:16;;;;;;;9.80;1.40;;;4.50;99.90;;;;;;4991250;28;20469;-71
2023/01/10 10:57:45;;;;;;;3.27;0.90;;;4.60;99.90;;;;;;4991686;28;20440;-71
2023/01/10 11:00:17;;;;;;;4.30;1.30;;;4.60;99.90;;;;;;4972035;28;20482;-72
2023/01/10 11:02:52;;;;;;;4.50;0.80;;;4.70;99.90;;;;;;4976414;28;20461;-71
2023/01/10 11:05:22;;;;;;;2.80;0.90;;;4.50;99.90;;;;;;4980550;28;20423;-71
2023/01/10 11:07:48;;;;;;;2.43;0.90;;;4.50;99.90;;;;;;4987921;28;20419;-71
2023/01/10 11:10:34;;;;;;;;;;;;;;;;;;;;;
2023/01/10 11:13:03;;;;;;;5.73;1.27;;;4.50;99.90;;;;;;4977840;28;20434;-71
2023/01/10 11:15:41;;;;;;;4.60;1.70;;;4.50;99.90;;;;;;4981100;28;20459;-71
2023/01/10 11:18:11;;;;;;;4.70;1.20;;;4.50;99.90;;;;;;4990264;28;20418;-71
2023/01/10 11:20:45;;;;;;;6.37;1.70;;;4.50;99.90;;;;;;4990326;28;20469;-72
2023/01/10 11:23:10;;;;;;;7.67;1.53;;;4.60;99.90;;;;;;4990102;28;20442;-72
2023/01/10 11:25:44;;;;;;;1.60;0.83;;;4.60;99.90;;;;;;4990149;28;20461;-72
2023/01/10 11:28:15;;;;;;;2.17;0.97;;;4.60;99.90;;;;;;4991010;28;20183;-72
2023/01/10 11:30:47;;;;;;;2.37;1.30;;;4.60;99.90;;;;;;4988663;28;20427;-71
2023/01/10 11:33:30;;;;;;;2.87;1.47;;;4.60;99.90;;;;;;4978412;28;20737;-72
2023/01/10 11:36:04;;;;;;;2.13;1.07;;;4.70;99.90;;;;;;4979539;28;20930;-71
2023/01/10 11:38:31;;;;;;;3.50;1.30;;;4.80;99.90;;;;;;4989951;28;20407;-71
2023/01/10 11:41:02;;;;;;;2.40;0.90;;;4.70;99.90;;;;;;4989961;28;20418;-72
2023/01/10 11:43:32;;;;;;;1.70;0.60;;;4.80;99.90;;;;;;4989843;28;20839;-72
2023/01/10 11:46:02;;;;;;;11.40;1.40;;;4.90;99.90;;;;;;4988732;28;20454;-71
2023/01/10 11:48:41;;;;;;;4.33;1.17;;;5.00;99.90;;;;;;4993219;28;20410;-72
2023/01/10 11:51:25;;;;;;;2.70;1.20;;;5.20;99.90;;;;;;4993142;28;20429;-71
2023/01/10 11:54:11;;;;;;;6.20;1.17;;;5.30;99.90;;;;;;4993538;28;20790;-71
2023/01/10 11:56:42;;;;;;;1.63;0.80;;;5.20;99.90;;;;;;4993312;28;20457;-71
2023/01/10 11:59:15;;;;;;;3.40;1.40;;;5.00;99.90;;;;;;4982511;28;20443;-71
2023/01/10 12:01:46;;;;;;;3.43;1.20;;;4.80;99.90;;;;;;4968417;28;20418;-71
2023/01/10 12:04:19;;;;;;;6.60;1.60;;;4.70;99.90;;;;;;4986405;28;20841;-71
2023/01/10 12:07:08;;;;;;;4.10;1.20;;;4.60;99.90;;;;;;4977011;28;20430;-71
2023/01/10 12:09:43;;;;;;;8.43;1.70;;;4.60;99.90;;;;;;4992074;28;20430;-72
2023/01/10 12:12:15;;;;;;;3.43;0.90;;;4.70;99.90;;;;;;4993255;28;20429;-71
2023/01/10 12:14:40;;;;;;;8.73;1.27;;;4.70;99.90;;;;;;4990330;28;20470;-71
2023/01/10 12:17:17;;;;;;;5.20;1.30;;;4.70;99.90;;;;;;4987742;28;20419;-71
2023/01/10 12:19:43;;;;;;;3.10;1.37;;;4.70;99.90;;;;;;4993206;28;20516;-71
2023/01/10 12:22:13;;;;;;;1.43;0.70;;;4.70;99.90;;;;;;4990649;28;20442;-71
2023/01/10 12:24:43;;;;;;;3.73;1.10;;;4.80;99.90;;;;;;4993206;28;20461;-70
2023/01/10 12:27:12;;;;;;;2.53;0.80;;;4.80;99.90;;;;;;4993235;28;20469;-71
2023/01/10 12:30:04;;;;;;;3.13;0.90;;;4.90;99.90;;;;;;4992549;28;20870;-71
2023/01/10 12:32:37;;;;;;;6.10;1.07;;;4.90;99.90;;;;;;4987433;28;20430;-71
2023/01/10 12:35:09;;;;;;;1.80;0.70;;;5.10;99.90;;;;;;4988545;28;20573;-71
2023/01/10 12:37:53;;;;;;;4.03;1.27;;;5.30;99.90;;;;;;4993074;28;20962;-71
2023/01/10 12:40:35;;;;;;;3.60;0.90;;;5.50;99.90;;;;;;4993030;28;21020;-71
2023/01/10 12:46:28;;;;;;;2.40;0.90;;;5.40;99.90;;;;;;4991317;28;20776;-71
2023/01/10 12:49:23;;;;;;;2.77;1.00;;;5.40;99.90;;;;;;4992859;28;20460;-71
2023/01/10 12:51:53;;;;;;;10.73;1.20;;;5.30;99.90;;;;;;4990143;28;20441;-71
2023/01/10 12:54:23;;;;;;;5.63;1.70;;;5.20;99.90;;;;;;4992261;28;20822;-71
2023/01/10 12:56:49;;;;;;;5.00;1.53;;;5.20;99.90;;;;;;4991965;28;20494;-72
2023/01/10 12:59:38;;;;;;;1.57;0.80;;;5.20;99.90;;;;;;4970272;28;20435;-71
2023/01/10 13:02:14;;;;;;;9.57;1.13;;;5.20;99.90;;;;;;4971176;28;21138;-71
2023/01/10 13:04:45;;;;;;;1.60;0.80;;;5.30;99.90;;;;;;4978948;28;20467;-72
2023/01/10 13:07:12;;;;;;;3.20;1.07;;;5.50;99.90;;;;;;4974506;28;20424;-71
2023/01/10 13:09:41;;;;;;;7.27;2.10;;;5.70;99.90;;;;;;4990629;28;20829;-71
2023/01/10 13:12:17;;;;;;;1.50;0.70;;;6.00;99.90;;;;;;4990915;28;20419;-71
2023/01/10 13:15:20;;;;;;;1.77;0.83;;;6.10;99.90;;;;;;4963633;28;21089;-71
2023/01/10 13:17:55;;;;;;;6.97;1.07;;;6.20;99.90;;;;;;4973207;28;21025;-71
2023/01/10 13:20:20;;;;;;;6.03;1.60;;;6.00;99.90;;;;;;4988101;28;20892;-71
2023/01/10 13:22:50;;;;;;;4.50;1.30;;;6.00;99.90;;;;;;4990148;28;20458;-71